createdAt,value
2023-02-23T06:35:17.850Z,15.40
2023-02-23T06:38:21.130Z,18.05
2023-02-23T06:46:22.937Z,17.52
2023-02-23T06:49:25.507Z,18.83
2023-02-23T06:52:27.956Z,18.00
2023-02-23T06:55:30.542Z,17.48
2023-02-23T06:58:33.230Z,17.85
2023-02-23T07:01:37.048Z,18.42
2023-02-23T07:04:39.686Z,18.77
2023-02-23T07:07:42.181Z,17.08
2023-02-23T07:10:45.390Z,17.35
2023-02-23T07:13:47.849Z,18.02
2023-02-23T07:16:51.704Z,19.30
2023-02-23T07:19:54.185Z,17.85
2023-02-23T07:22:56.648Z,18.65
2023-02-23T07:26:00.911Z,18.13
2023-02-23T07:29:03.584Z,17.60
2023-02-23T07:32:07.574Z,17.55
2023-02-23T07:35:10.749Z,18.40
2023-02-23T07:38:13.615Z,17.50
2023-02-23T07:41:16.321Z,17.25
2023-02-23T07:44:18.842Z,16.75
2023-02-23T07:47:23.008Z,16.02
2023-02-23T07:50:25.484Z,16.52
2023-02-23T07:53:28.273Z,16.23
2023-02-23T07:56:30.702Z,16.00
2023-02-23T07:59:33.191Z,15.57
2023-02-23T08:02:37.022Z,17.27
2023-02-23T08:05:40.080Z,16.65
2023-02-23T08:08:42.592Z,16.80
2023-02-23T08:11:45.096Z,16.00
2023-02-23T08:14:47.580Z,16.30
2023-02-23T08:17:51.363Z,16.38
2023-02-23T08:20:59.057Z,16.85
2023-02-23T08:24:01.537Z,15.52
2023-02-23T08:27:04.334Z,15.98
2023-02-23T08:30:09.811Z,17.02
2023-02-23T08:33:13.611Z,16.50
2023-02-23T08:36:16.073Z,15.95
2023-02-23T08:39:18.906Z,16.52
2023-02-23T08:42:21.353Z,16.15
2023-02-23T08:45:23.819Z,16.15
2023-02-23T08:48:27.655Z,15.48
2023-02-23T08:51:30.118Z,16.60
2023-02-23T08:54:32.582Z,15.85
2023-02-23T08:57:35.520Z,14.50
2023-02-23T09:00:38.015Z,15.07
2023-02-23T09:03:41.825Z,15.75
2023-02-23T09:06:44.255Z,15.60
2023-02-23T09:09:46.710Z,16.38
2023-02-23T09:12:49.200Z,15.30
2023-02-23T09:15:51.662Z,15.70
2023-02-23T09:18:55.930Z,15.55
2023-02-23T09:21:58.371Z,15.45
2023-02-23T09:25:00.856Z,15.23
2023-02-23T09:28:03.355Z,15.43
2023-02-23T09:31:07.385Z,16.52
2023-02-23T09:34:12.649Z,14.57
2023-02-23T09:37:15.570Z,15.98
2023-02-23T09:40:21.888Z,15.05
2023-02-23T09:43:31.718Z,15.38
2023-02-23T09:46:43.953Z,15.30
2023-02-23T09:49:50.774Z,15.63
2023-02-23T09:52:58.329Z,16.15
2023-02-23T09:56:04.238Z,15.75
2023-02-23T09:59:10.011Z,15.25
2023-02-23T10:02:24.062Z,15.55
2023-02-23T10:05:31.781Z,16.98
2023-02-23T10:08:56.534Z,14.70
2023-02-23T10:12:07.216Z,14.55
2023-02-23T10:15:25.473Z,15.82
2023-02-23T10:18:46.578Z,14.75
2023-02-23T10:21:56.926Z,14.88
2023-02-23T10:25:06.385Z,15.32
2023-02-23T10:28:14.118Z,14.35
2023-02-23T10:31:38.312Z,15.63
2023-02-23T10:34:42.065Z,14.32
2023-02-23T10:37:46.719Z,15.23
2023-02-23T10:40:57.683Z,14.80
2023-02-23T10:44:10.936Z,15.47
2023-02-23T10:47:22.206Z,14.65
2023-02-23T10:50:27.566Z,15.70
2023-02-23T10:53:36.060Z,14.73
2023-02-23T10:56:45.154Z,15.63
2023-02-23T11:00:27.586Z,15.43
2023-02-23T11:03:34.459Z,15.05
2023-02-23T11:06:39.581Z,14.48
2023-02-23T11:09:47.403Z,16.17
2023-02-23T11:12:50.553Z,14.60
2023-02-23T11:16:01.997Z,14.50
2023-02-23T11:19:07.000Z,15.90
2023-02-23T11:22:23.364Z,16.55
2023-02-23T11:25:31.226Z,16.25
2023-02-23T11:28:36.943Z,14.50
2023-02-23T11:31:40.696Z,16.58
2023-02-23T11:34:44.875Z,17.05
2023-02-23T11:37:47.893Z,17.65
2023-02-23T11:41:01.506Z,17.13
2023-02-23T11:44:06.432Z,16.50
2023-02-23T11:47:17.322Z,17.52
2023-02-23T11:50:25.366Z,17.33
2023-02-23T11:53:32.748Z,17.90
2023-02-23T11:56:37.048Z,16.15
2023-02-23T11:59:42.046Z,16.60
2023-02-23T12:02:50.811Z,17.13
2023-02-23T12:05:57.644Z,16.70
2023-02-23T12:09:06.743Z,15.85
2023-02-23T12:12:15.763Z,16.50
2023-02-23T12:15:27.309Z,16.73
2023-02-23T12:18:39.717Z,17.20
2023-02-23T12:21:46.148Z,16.85
2023-02-23T12:24:53.552Z,16.75
2023-02-23T12:28:18.086Z,15.85
2023-02-23T12:31:27.097Z,16.48
2023-02-23T12:34:34.602Z,16.48
2023-02-23T12:37:42.122Z,15.43
2023-02-23T12:40:45.796Z,16.80
2023-02-23T12:43:54.901Z,15.77
2023-02-23T12:47:04.509Z,18.45
2023-02-23T12:50:13.563Z,18.38
2023-02-23T12:53:22.844Z,18.02
2023-02-23T12:56:41.474Z,17.02
2023-02-23T13:00:24.134Z,18.13
2023-02-23T13:03:38.846Z,17.10
2023-02-23T13:06:51.632Z,18.00
2023-02-23T13:10:06.469Z,17.00
2023-02-23T13:13:22.047Z,17.17
2023-02-23T13:16:31.928Z,17.00
2023-02-23T13:19:42.454Z,15.77
2023-02-23T13:22:50.810Z,17.10
2023-02-23T13:26:00.629Z,16.90
2023-02-23T13:29:08.121Z,16.40
2023-02-23T13:32:13.722Z,16.77
2023-02-23T13:35:19.088Z,15.98
2023-02-23T13:38:27.350Z,17.38
2023-02-23T13:41:38.688Z,16.05
2023-02-23T13:44:49.248Z,16.67
2023-02-23T13:47:58.147Z,16.38
2023-02-23T13:51:07.012Z,16.73
2023-02-23T13:54:24.757Z,17.58
2023-02-23T13:57:28.941Z,16.65
2023-02-23T14:00:32.579Z,17.73
2023-02-23T14:03:42.132Z,18.17
2023-02-23T14:06:56.454Z,17.48
2023-02-23T14:10:01.910Z,16.40
2023-02-23T14:13:07.827Z,18.10
2023-02-23T14:16:14.716Z,17.90
2023-02-23T14:19:41.852Z,18.98
2023-02-23T14:23:14.697Z,18.90
2023-02-23T14:26:36.496Z,17.55
2023-02-23T14:29:41.350Z,17.70
2023-02-23T14:32:45.805Z,17.80
2023-02-23T14:35:50.664Z,17.23
2023-02-23T14:39:01.262Z,17.42
2023-02-23T14:42:07.439Z,17.75
2023-02-23T14:45:19.986Z,18.15
2023-02-23T14:48:23.520Z,18.27
2023-02-23T14:51:42.303Z,18.30
2023-02-23T14:54:45.072Z,17.40
2023-02-23T14:57:47.614Z,17.70
2023-02-23T15:00:52.037Z,18.80
2023-02-23T15:04:06.930Z,20.48
2023-02-23T15:07:18.767Z,20.15
2023-02-23T15:13:29.960Z,23.75
2023-02-23T15:16:35.486Z,23.90
2023-02-23T15:19:39.315Z,28.58
2023-02-23T15:22:44.089Z,26.90
2023-02-23T15:25:50.967Z,25.70
2023-02-23T15:28:54.445Z,29.95
2023-02-23T15:31:58.099Z,28.83
2023-02-23T15:35:03.619Z,28.10
2023-02-23T15:38:24.719Z,29.88
2023-02-23T15:41:36.905Z,31.02
2023-02-23T15:44:44.869Z,31.08
2023-02-23T15:47:48.302Z,30.25
2023-02-23T15:50:53.832Z,30.13
2023-02-23T15:53:58.243Z,30.30
2023-02-23T15:57:05.298Z,30.15
2023-02-23T16:00:19.752Z,30.67
2023-02-23T16:03:31.643Z,29.92
2023-02-23T16:06:36.476Z,31.15
2023-02-23T16:09:49.774Z,31.63
2023-02-23T16:12:54.745Z,31.63
2023-02-23T16:15:57.970Z,31.55
